createdAt,value
2023-02-16T00:00:35.340Z,47.50
2023-02-16T00:03:23.229Z,43.20
2023-02-16T00:05:51.390Z,42.10
2023-02-16T00:08:19.329Z,39.60
2023-02-16T00:11:07.320Z,42.50
2023-02-16T00:13:44.409Z,41.40
2023-02-16T00:16:18.361Z,44.70
2023-02-16T00:18:47.263Z,43.40
2023-02-16T00:21:16.057Z,46.20
2023-02-16T00:23:44.056Z,45.10
2023-02-16T00:26:24.162Z,42.40
2023-02-16T00:28:54.837Z,41.10
2023-02-16T00:31:27.454Z,42.50
2023-02-16T00:36:25.060Z,42.20
2023-02-16T00:38:52.969Z,42.10
2023-02-16T00:41:43.184Z,44.80
2023-02-16T00:44:36.143Z,45.10
2023-02-16T00:47:17.281Z,41.40
2023-02-16T00:49:45.503Z,42.20
2023-02-16T00:52:22.443Z,40.30
2023-02-16T00:54:50.314Z,41.90
2023-02-16T00:57:20.057Z,38.80
2023-02-16T00:59:51.551Z,40.20
2023-02-16T01:02:19.429Z,41.60
2023-02-16T01:04:47.434Z,45.00
2023-02-16T01:07:37.479Z,41.60
2023-02-16T01:10:25.440Z,42.70
2023-02-16T01:12:53.322Z,42.70
2023-02-16T01:15:25.875Z,42.50
2023-02-16T01:17:53.755Z,44.30
2023-02-16T01:20:27.136Z,43.40
2023-02-16T01:22:55.004Z,41.10
2023-02-16T01:25:22.992Z,40.00
2023-02-16T01:27:50.891Z,46.90
2023-02-16T01:30:24.237Z,44.00
2023-02-16T01:32:52.430Z,43.80
2023-02-16T01:35:33.312Z,43.70
2023-02-16T01:38:01.360Z,39.90
2023-02-16T01:40:35.317Z,44.10
2023-02-16T01:43:12.383Z,41.20
2023-02-16T01:45:44.426Z,40.70
2023-02-16T01:48:24.931Z,42.10
2023-02-16T01:51:02.940Z,41.10
2023-02-16T01:53:37.492Z,37.80
2023-02-16T01:56:16.131Z,42.00
2023-02-16T01:58:52.965Z,41.20
2023-02-16T02:01:47.296Z,41.60
2023-02-16T02:04:48.506Z,42.20
2023-02-16T02:07:28.806Z,39.20
2023-02-16T02:10:08.369Z,41.60
2023-02-16T02:12:49.830Z,38.80
2023-02-16T02:15:22.692Z,41.10
2023-02-16T02:17:50.761Z,39.60
2023-02-16T02:20:48.032Z,41.50
2023-02-16T02:23:32.608Z,40.80
2023-02-16T02:26:28.508Z,39.20
2023-02-16T02:29:50.960Z,39.00
2023-02-16T02:32:45.955Z,40.70
2023-02-16T02:37:57.005Z,38.70
2023-02-16T02:40:56.387Z,38.50
2023-02-16T02:43:27.998Z,41.50
2023-02-16T02:46:09.498Z,38.60
2023-02-16T02:48:37.568Z,41.10
2023-02-16T02:51:27.485Z,40.00
2023-02-16T02:54:52.491Z,43.20
2023-02-16T02:57:54.886Z,41.70
2023-02-16T03:00:41.208Z,43.00
2023-02-16T03:03:27.602Z,40.80
2023-02-16T03:06:00.950Z,40.30
2023-02-16T03:08:33.623Z,38.80
2023-02-16T03:11:41.272Z,41.40
2023-02-16T03:14:16.390Z,37.10
2023-02-16T03:16:49.720Z,40.50
2023-02-16T03:19:37.278Z,39.10
2023-02-16T03:22:24.121Z,44.30
2023-02-16T03:25:10.552Z,40.30
2023-02-16T03:28:00.088Z,41.80
2023-02-16T03:30:29.591Z,43.10
2023-02-16T03:32:57.532Z,44.50
2023-02-16T03:35:26.212Z,41.60
2023-02-16T03:37:54.128Z,39.30
2023-02-16T03:40:28.496Z,45.10
2023-02-16T03:43:02.772Z,44.70
2023-02-16T03:45:32.500Z,41.90
2023-02-16T03:48:00.678Z,44.90
2023-02-16T03:50:28.659Z,47.40
2023-02-16T03:53:07.115Z,47.40
2023-02-16T03:55:36.643Z,48.00
2023-02-16T03:58:06.522Z,44.40
2023-02-16T04:00:35.732Z,47.50
2023-02-16T04:03:05.174Z,44.70
2023-02-16T04:05:33.755Z,46.20
2023-02-16T04:08:01.617Z,49.50
2023-02-16T04:10:29.532Z,45.50
2023-02-16T04:12:57.427Z,46.10
2023-02-16T04:15:27.627Z,49.10
2023-02-16T04:17:55.610Z,51.70
2023-02-16T04:20:27.357Z,48.10
2023-02-16T04:22:56.006Z,46.20
2023-02-16T04:25:24.003Z,47.30
2023-02-16T04:27:52.293Z,50.40
2023-02-16T04:30:26.753Z,50.70
2023-02-16T04:32:55.539Z,49.30
2023-02-16T04:35:23.560Z,49.30
2023-02-16T04:37:51.445Z,51.70
2023-02-16T04:40:19.522Z,48.20
2023-02-16T04:42:47.567Z,50.70
2023-02-16T04:45:15.505Z,47.50
2023-02-16T04:47:43.420Z,47.00
2023-02-16T04:50:11.955Z,52.10
2023-02-16T04:52:40.528Z,53.20
2023-02-16T04:55:10.758Z,50.00
2023-02-16T04:57:39.673Z,52.00
2023-02-16T05:00:09.464Z,49.60
2023-02-16T05:02:37.682Z,54.10
2023-02-16T05:05:05.933Z,51.00
2023-02-16T05:07:33.863Z,53.90
2023-02-16T05:10:01.727Z,52.10
2023-02-16T05:12:47.992Z,55.20
2023-02-16T05:15:16.082Z,56.00
2023-02-16T05:17:43.996Z,52.00
2023-02-16T05:20:12.904Z,50.60
2023-02-16T05:22:40.882Z,50.00
2023-02-16T05:25:08.903Z,51.60
2023-02-16T05:27:37.177Z,53.10
2023-02-16T05:30:05.850Z,52.30
2023-02-16T05:32:33.831Z,52.10
2023-02-16T05:35:01.805Z,53.00
2023-02-16T05:37:29.731Z,51.30
2023-02-16T05:39:57.625Z,52.10
2023-02-16T05:42:25.472Z,57.20
2023-02-16T05:44:53.284Z,56.40
2023-02-16T05:47:21.117Z,57.50
2023-02-16T05:49:48.979Z,53.90
2023-02-16T05:52:16.871Z,52.10
2023-02-16T05:54:44.818Z,55.10
2023-02-16T05:57:12.729Z,62.00
2023-02-16T05:59:40.658Z,61.30
2023-02-16T06:02:09.937Z,63.40
2023-02-16T06:04:37.839Z,60.30
2023-02-16T06:07:05.729Z,59.10
2023-02-16T06:09:33.832Z,59.90
2023-02-16T06:12:01.748Z,63.20
2023-02-16T06:14:29.664Z,63.20
2023-02-16T06:16:58.821Z,63.50
2023-02-16T06:19:26.878Z,61.90
2023-02-16T06:21:54.886Z,59.60
2023-02-16T06:24:22.724Z,66.80
2023-02-16T06:26:50.882Z,63.70
2023-02-16T06:29:18.748Z,62.30
2023-02-16T06:31:46.729Z,71.80
2023-02-16T06:34:14.812Z,70.30
2023-02-16T06:36:42.911Z,71.00
2023-02-16T06:39:10.876Z,72.10
2023-02-16T06:41:40.556Z,75.30
2023-02-16T06:44:15.235Z,65.00
2023-02-16T06:46:44.828Z,65.40
2023-02-16T06:49:20.907Z,60.50
2023-02-16T06:51:50.016Z,58.50
2023-02-16T06:54:18.099Z,60.20
2023-02-16T06:56:45.949Z,61.20
2023-02-16T06:59:14.261Z,61.40
2023-02-16T07:01:44.248Z,69.90
2023-02-16T07:04:13.796Z,64.80
2023-02-16T07:06:43.041Z,58.10
2023-02-16T07:09:12.738Z,60.30
2023-02-16T07:11:40.917Z,54.30
2023-02-16T07:14:08.872Z,57.80
2023-02-16T07:16:36.850Z,53.30
2023-02-16T07:19:05.645Z,60.30
2023-02-16T07:21:34.090Z,57.60
2023-02-16T07:24:02.057Z,56.60
2023-02-16T07:26:30.083Z,58.20
2023-02-16T07:28:58.477Z,57.90
2023-02-16T07:31:26.568Z,57.10
2023-02-16T07:33:54.568Z,60.20
2023-02-16T07:36:22.858Z,69.80
2023-02-16T07:38:51.757Z,57.60
2023-02-16T07:41:20.974Z,57.50
2023-02-16T07:43:48.857Z,69.60
2023-02-16T07:46:16.886Z,68.60
2023-02-16T07:48:48.790Z,56.20
2023-02-16T07:51:27.655Z,59.70
2023-02-16T07:53:57.002Z,57.30
2023-02-16T07:56:28.427Z,56.80
2023-02-16T07:58:58.562Z,59.60
2023-02-16T08:01:27.706Z,67.00
2023-02-16T08:03:56.299Z,61.00
2023-02-16T08:06:24.523Z,58.40
2023-02-16T08:08:52.470Z,63.00
2023-02-16T08:11:23.341Z,60.00
2023-02-16T08:13:52.273Z,51.80
2023-02-16T08:16:24.074Z,46.20
2023-02-16T08:18:56.252Z,45.70
2023-02-16T08:21:27.756Z,40.60
2023-02-16T08:23:58.407Z,36.10
2023-02-16T08:26:28.945Z,39.40
2023-02-16T08:28:58.445Z,42.00
2023-02-16T08:31:30.050Z,41.00
2023-02-16T08:34:00.745Z,39.30
2023-02-16T08:36:34.960Z,37.80
2023-02-16T08:39:06.183Z,43.70
2023-02-16T08:41:36.630Z,45.10
2023-02-16T08:44:08.699Z,39.80
2023-02-16T08:46:39.908Z,42.40
2023-02-16T08:49:09.601Z,40.10
2023-02-16T08:51:42.349Z,43.00
2023-02-16T08:54:16.806Z,45.90
2023-02-16T08:56:47.981Z,40.60
2023-02-16T08:59:18.363Z,41.00
2023-02-16T09:01:46.702Z,43.70
2023-02-16T09:04:15.847Z,50.10
2023-02-16T09:06:45.303Z,46.00
2023-02-16T09:09:13.327Z,44.30
2023-02-16T09:11:41.273Z,46.40
2023-02-16T09:14:10.485Z,40.50
2023-02-16T09:16:43.954Z,45.90
2023-02-16T09:19:17.539Z,40.50
2023-02-16T09:21:47.025Z,46.20
2023-02-16T09:24:16.340Z,43.40
2023-02-16T09:26:44.682Z,42.20
2023-02-16T09:29:13.992Z,48.40
2023-02-16T09:31:44.440Z,41.40
2023-02-16T09:34:21.308Z,41.50
2023-02-16T09:36:50.172Z,46.10
2023-02-16T09:39:19.243Z,46.40
2023-02-16T09:42:05.210Z,42.10
2023-02-16T09:44:33.094Z,43.00
2023-02-16T09:47:06.357Z,38.90
2023-02-16T09:49:46.205Z,46.10
2023-02-16T09:52:27.157Z,41.40
2023-02-16T09:54:59.567Z,45.30
2023-02-16T09:57:38.373Z,44.40
2023-02-16T10:00:23.552Z,47.80
2023-02-16T10:03:18.450Z,45.20
2023-02-16T10:06:12.056Z,47.10
2023-02-16T10:09:00.451Z,43.90
2023-02-16T10:11:38.449Z,56.40
2023-02-16T10:14:41.896Z,44.60
2023-02-16T10:17:34.124Z,42.50
2023-02-16T10:20:13.525Z,49.30
2023-02-16T10:22:55.192Z,45.70
2023-02-16T10:25:42.035Z,47.10
2023-02-16T10:28:18.235Z,44.70
2023-02-16T10:31:03.288Z,45.20
2023-02-16T10:33:53.553Z,43.20
2023-02-16T10:36:39.427Z,42.80
2023-02-16T10:39:26.540Z,48.10
2023-02-16T10:56:36.461Z,44.00
2023-02-16T10:59:15.365Z,47.10
2023-02-16T11:01:46.417Z,45.10
2023-02-16T11:04:42.230Z,42.80
2023-02-16T11:07:16.888Z,42.30
2023-02-16T11:09:48.393Z,46.70
2023-02-16T11:12:34.119Z,43.10
2023-02-16T11:15:14.359Z,53.50
2023-02-16T11:17:56.306Z,44.20
2023-02-16T11:20:31.122Z,42.60
2023-02-16T11:23:33.010Z,40.90
2023-02-16T11:26:10.145Z,39.80
2023-02-16T11:28:44.069Z,45.80
2023-02-16T11:31:18.744Z,41.70
2023-02-16T11:34:24.251Z,36.10
2023-02-16T11:37:00.875Z,42.60
2023-02-16T11:39:37.277Z,42.30
2023-02-16T11:42:19.755Z,40.00
2023-02-16T11:44:56.335Z,43.90
2023-02-16T11:47:32.003Z,46.30
2023-02-16T11:50:23.430Z,39.60
2023-02-16T11:52:55.031Z,42.10
2023-02-16T11:55:34.578Z,42.60
2023-02-16T11:58:25.266Z,38.50
2023-02-16T12:01:24.768Z,45.10
2023-02-16T12:04:04.674Z,43.00
2023-02-16T12:06:44.742Z,38.60
2023-02-16T12:09:21.833Z,43.30
2023-02-16T12:12:03.270Z,40.50
2023-02-16T12:14:44.237Z,37.90
2023-02-16T12:17:28.121Z,40.50
2023-02-16T12:20:29.465Z,36.60
2023-02-16T12:23:20.655Z,37.00
2023-02-16T12:26:06.853Z,38.10
2023-02-16T12:28:49.047Z,37.50
2023-02-16T12:31:30.865Z,41.50
2023-02-16T12:34:20.359Z,45.50
2023-02-16T12:37:05.164Z,43.50
2023-02-16T12:40:10.134Z,48.80
2023-02-16T12:43:09.754Z,47.80
2023-02-16T12:45:43.399Z,43.80
2023-02-16T12:48:11.531Z,42.80
2023-02-16T12:50:44.344Z,44.60
2023-02-16T12:53:27.870Z,41.80
2023-02-16T12:56:01.350Z,40.80
2023-02-16T12:58:35.380Z,61.90
2023-02-16T13:01:25.873Z,45.60
2023-02-16T13:04:04.942Z,51.30
2023-02-16T13:06:42.663Z,45.20
2023-02-16T13:09:40.224Z,59.00
2023-02-16T13:12:31.691Z,81.30
2023-02-16T13:15:13.379Z,69.90
2023-02-16T13:17:52.882Z,54.90
2023-02-16T13:20:23.190Z,45.30
2023-02-16T13:23:03.059Z,46.70
2023-02-16T13:25:43.323Z,44.70
2023-02-16T13:28:49.806Z,47.40
2023-02-16T13:31:40.723Z,51.70
2023-02-16T13:34:50.579Z,44.00
2023-02-16T13:37:58.797Z,46.30
2023-02-16T13:40:45.726Z,49.30
2023-02-16T13:43:17.012Z,43.90
2023-02-16T13:45:47.608Z,45.80
2023-02-16T13:48:28.843Z,46.50
2023-02-16T13:51:03.887Z,43.80
2023-02-16T13:53:41.698Z,52.50
2023-02-16T13:56:28.755Z,53.10
2023-02-16T13:58:59.325Z,54.70
2023-02-16T14:01:37.877Z,50.80
2023-02-16T14:04:31.128Z,64.80
2023-02-16T14:07:07.257Z,47.10
2023-02-16T14:09:38.345Z,47.90
2023-02-16T14:12:11.638Z,51.30
2023-02-16T14:14:42.569Z,54.00
2023-02-16T14:17:19.954Z,49.00
2023-02-16T14:19:54.328Z,45.30
2023-02-16T14:22:50.264Z,48.20
2023-02-16T14:25:24.376Z,67.90
2023-02-16T14:28:00.401Z,59.10
2023-02-16T14:30:47.378Z,57.30
2023-02-16T14:33:17.949Z,45.90
2023-02-16T14:36:08.056Z,45.40
2023-02-16T14:38:51.214Z,44.30
2023-02-16T14:41:31.075Z,43.30
2023-02-16T14:44:23.411Z,49.50
2023-02-16T14:47:03.429Z,55.50
2023-02-16T14:50:09.263Z,55.30
2023-02-16T14:52:40.290Z,53.50
2023-02-16T14:55:44.418Z,57.00
2023-02-16T14:58:31.172Z,69.30
2023-02-16T15:01:13.500Z,64.60
2023-02-16T15:03:48.236Z,67.00
2023-02-16T15:06:31.206Z,57.00
2023-02-16T15:09:02.775Z,58.20
2023-02-16T15:12:11.297Z,55.80
2023-02-16T15:14:48.450Z,64.60
2023-02-16T15:17:35.551Z,63.40
2023-02-16T15:20:31.826Z,66.40
2023-02-16T15:23:03.763Z,70.70
2023-02-16T15:25:34.514Z,70.50
2023-02-16T15:28:06.961Z,76.30
2023-02-16T15:30:39.253Z,71.60
2023-02-16T15:33:25.420Z,66.90
2023-02-16T15:35:56.976Z,58.50
2023-02-16T15:38:28.045Z,54.40
2023-02-16T15:40:59.111Z,55.60
2023-02-16T15:43:35.769Z,59.70
2023-02-16T15:46:08.833Z,60.90
2023-02-16T15:48:38.270Z,67.70
2023-02-16T15:51:18.460Z,62.10
2023-02-16T15:53:56.034Z,66.60
2023-02-16T15:56:33.080Z,58.80
2023-02-16T15:59:04.968Z,71.80
2023-02-16T16:01:35.457Z,72.30
2023-02-16T16:04:19.541Z,76.10
2023-02-16T16:09:26.943Z,76.40
2023-02-16T16:12:04.098Z,100.50
2023-02-16T16:14:38.468Z,122.20
2023-02-16T16:17:13.907Z,86.60
2023-02-16T16:19:42.301Z,76.30
2023-02-16T16:22:38.508Z,76.20
2023-02-16T16:25:28.544Z,80.70
2023-02-16T16:27:57.128Z,81.10
2023-02-16T16:30:29.094Z,89.80
2023-02-16T16:33:06.398Z,81.80
2023-02-16T16:35:47.818Z,85.50
2023-02-16T16:38:31.756Z,84.70
2023-02-16T16:41:03.995Z,73.60
2023-02-16T16:43:36.933Z,70.80
2023-02-16T16:46:23.383Z,84.80
2023-02-16T16:48:56.525Z,96.70
2023-02-16T16:51:27.582Z,95.50
2023-02-16T16:54:01.160Z,92.90
2023-02-16T16:56:35.250Z,88.40
2023-02-16T16:59:04.579Z,96.60
2023-02-16T17:01:33.746Z,92.90
2023-02-16T17:04:02.029Z,101.60
2023-02-16T17:06:30.229Z,103.90
2023-02-16T17:08:58.138Z,118.20
2023-02-16T17:11:30.789Z,99.80
2023-02-16T17:14:09.767Z,102.40
2023-02-16T17:16:42.111Z,97.40
2023-02-16T17:19:16.906Z,96.10
2023-02-16T17:21:46.115Z,99.40
2023-02-16T17:24:14.716Z,94.00
2023-02-16T17:26:42.802Z,96.90
2023-02-16T17:29:10.822Z,101.80
2023-02-16T17:31:38.861Z,93.60
2023-02-16T17:34:06.949Z,91.00
2023-02-16T17:36:37.009Z,86.80
2023-02-16T17:39:05.249Z,83.30
2023-02-16T17:41:33.173Z,79.90
2023-02-16T17:44:01.253Z,81.40
2023-02-16T17:46:31.319Z,82.20
2023-02-16T17:48:59.516Z,85.00
2023-02-16T17:51:27.634Z,82.90
2023-02-16T17:53:56.216Z,79.20
2023-02-16T17:56:25.500Z,79.60
2023-02-16T17:58:53.719Z,84.30
2023-02-16T18:01:22.225Z,78.70
2023-02-16T18:03:50.827Z,80.80
2023-02-16T18:06:21.740Z,83.60
2023-02-16T18:08:49.711Z,88.10
2023-02-16T18:11:17.935Z,97.20
2023-02-16T18:13:46.284Z,94.60
2023-02-16T18:16:18.938Z,96.70
2023-02-16T18:18:47.575Z,89.00
2023-02-16T18:21:15.573Z,88.40
2023-02-16T18:23:43.616Z,94.50
2023-02-16T18:26:15.518Z,101.00
2023-02-16T18:28:44.308Z,96.70
2023-02-16T18:31:14.502Z,100.40
2023-02-16T18:33:42.506Z,87.00
2023-02-16T18:36:10.369Z,88.50
2023-02-16T18:38:38.805Z,86.00
2023-02-16T18:41:08.142Z,83.00
2023-02-16T18:43:37.246Z,76.30
2023-02-16T18:46:07.354Z,71.90
2023-02-16T18:48:36.770Z,71.80
2023-02-16T18:51:06.872Z,69.70
2023-02-16T18:53:37.683Z,80.30
2023-02-16T18:56:07.383Z,90.20
2023-02-16T18:58:36.200Z,90.80
2023-02-16T19:01:26.774Z,85.30
2023-02-16T19:03:55.345Z,75.70
2023-02-16T19:06:23.527Z,65.60
2023-02-16T19:08:51.949Z,67.00
2023-02-16T19:11:21.437Z,75.40
2023-02-16T19:13:49.541Z,74.90
2023-02-16T19:16:17.924Z,77.90
2023-02-16T19:18:46.141Z,71.00
2023-02-16T19:21:14.625Z,79.10
2023-02-16T19:23:42.522Z,73.50
2023-02-16T19:26:12.793Z,79.80
2023-02-16T19:28:40.674Z,79.60
2023-02-16T19:31:16.996Z,74.50
2023-02-16T19:33:45.494Z,74.70
2023-02-16T19:36:14.623Z,82.60
2023-02-16T19:38:43.420Z,83.40
2023-02-16T19:41:15.534Z,76.20
2023-02-16T19:43:44.157Z,73.30
2023-02-16T19:46:13.134Z,71.40
2023-02-16T19:48:41.637Z,77.30
2023-02-16T19:51:10.493Z,84.00
2023-02-16T19:53:39.661Z,85.70
2023-02-16T19:56:10.011Z,83.40
2023-02-16T19:58:38.041Z,82.60
2023-02-16T20:01:12.164Z,87.80
2023-02-16T20:03:40.599Z,131.00
2023-02-16T20:06:13.677Z,132.60
2023-02-16T20:08:41.988Z,145.30
2023-02-16T20:11:09.860Z,131.80
2023-02-16T20:13:38.169Z,108.20
2023-02-16T20:16:08.808Z,79.00
2023-02-16T20:18:39.041Z,61.90
2023-02-16T20:21:12.936Z,66.30
2023-02-16T20:23:41.876Z,72.20
2023-02-16T20:26:18.877Z,82.00
2023-02-16T20:28:48.158Z,89.30
2023-02-16T20:31:19.578Z,90.90
2023-02-16T20:33:48.594Z,88.40
2023-02-16T20:36:16.924Z,84.10
2023-02-16T20:38:45.093Z,81.20
2023-02-16T20:41:13.094Z,80.60
2023-02-16T20:43:43.894Z,76.60
2023-02-16T20:46:12.938Z,80.80
2023-02-16T20:48:40.912Z,76.10
2023-02-16T20:51:10.883Z,73.50
2023-02-16T20:53:39.852Z,78.70
2023-02-16T20:56:14.678Z,82.00
2023-02-16T20:58:44.738Z,86.80
2023-02-16T21:01:25.567Z,97.70
2023-02-16T21:03:55.582Z,99.20
2023-02-16T21:06:24.047Z,91.70
2023-02-16T21:08:52.448Z,91.60
2023-02-16T21:11:20.462Z,90.90
2023-02-16T21:13:49.036Z,79.90
2023-02-16T21:16:17.641Z,67.80
2023-02-16T21:18:45.772Z,69.40
2023-02-16T21:21:15.809Z,67.50
2023-02-16T21:23:50.222Z,66.10
2023-02-16T21:26:19.840Z,64.40
2023-02-16T21:28:47.975Z,63.40
2023-02-16T21:31:20.144Z,63.90
2023-02-16T21:33:49.031Z,62.10
2023-02-16T21:36:22.818Z,69.40
2023-02-16T21:38:50.788Z,69.00
2023-02-16T21:41:24.644Z,61.00
2023-02-16T21:43:53.975Z,48.40
2023-02-16T21:46:22.294Z,43.30
2023-02-16T21:48:50.471Z,38.80
2023-02-16T21:51:26.536Z,38.20
2023-02-16T21:53:54.928Z,39.40
2023-02-16T21:56:29.306Z,40.70
2023-02-16T21:58:58.101Z,42.30
2023-02-16T22:01:28.916Z,37.30
2023-02-16T22:03:59.328Z,40.20
2023-02-16T22:06:32.235Z,39.70
2023-02-16T22:09:01.751Z,40.70
2023-02-16T22:11:29.892Z,43.10
2023-02-16T22:13:59.958Z,39.10
2023-02-16T22:16:30.596Z,42.70
2023-02-16T22:19:07.577Z,46.90
2023-02-16T22:21:37.646Z,48.70
2023-02-16T22:24:06.726Z,46.30
2023-02-16T22:26:35.860Z,45.70
2023-02-16T22:29:06.099Z,45.60
2023-02-16T22:31:34.390Z,46.50
2023-02-16T22:34:05.026Z,50.80
2023-02-16T22:36:33.946Z,43.70
2023-02-16T22:39:01.792Z,48.10
2023-02-16T22:41:30.113Z,48.40
2023-02-16T22:44:01.452Z,46.40
2023-02-16T22:46:30.287Z,41.80
2023-02-16T22:48:59.075Z,47.80
2023-02-16T22:51:29.285Z,52.70
2023-02-16T22:53:58.744Z,50.40
2023-02-16T22:56:27.060Z,46.20
2023-02-16T22:58:57.480Z,46.10
2023-02-16T23:01:27.874Z,45.70
2023-02-16T23:03:57.488Z,47.10
2023-02-16T23:06:36.963Z,49.70
2023-02-16T23:09:08.345Z,52.60
2023-02-16T23:11:36.468Z,51.10
2023-02-16T23:14:05.084Z,46.50
2023-02-16T23:16:33.217Z,48.30
2023-02-16T23:19:01.106Z,47.60
2023-02-16T23:21:31.380Z,48.30
2023-02-16T23:23:59.965Z,47.70
2023-02-16T23:26:29.767Z,49.20
2023-02-16T23:29:00.533Z,46.50
2023-02-16T23:31:33.072Z,48.20
2023-02-16T23:34:02.633Z,48.90
2023-02-16T23:36:32.460Z,47.70
2023-02-16T23:39:09.388Z,49.40
2023-02-16T23:41:37.565Z,46.30
2023-02-16T23:44:05.708Z,54.20
2023-02-16T23:46:34.287Z,48.60
2023-02-16T23:49:02.110Z,48.10
2023-02-16T23:51:30.149Z,45.40
2023-02-16T23:53:58.053Z,47.60
2023-02-16T23:56:27.954Z,48.10
2023-02-16T23:59:00.541Z,46.70
